Time;durP1;ratioP1;P1;durP2;ratioP2;P2;SDS_P1;SDS_P2;PMS_P1;PMS_P2;Temp;Humidity;BMP_temperature;BMP_pressure;BME280_temperature;BME280_humidity;BME280_pressure;Samples;Min_cycle;Max_cycle;Signal;HPM_P1;HPM_P2
2022/04/16 00:01:38;;;;;;;9.00;6.60;;;;;;;11.40;45.15;100438.39;117343;1185;23649;-57
2022/04/16 00:04:08;;;;;;;11.10;6.80;;;;;;;11.37;45.23;100436.48;117315;1186;21894;-58
2022/04/16 00:06:37;;;;;;;11.50;6.70;;;;;;;11.35;45.19;100435.81;117261;1181;23550;-48
2022/04/16 00:09:05;;;;;;;8.60;6.10;;;;;;;11.32;45.06;100431.98;117225;1185;21856;-58
2022/04/16 00:11:33;;;;;;;9.50;6.60;;;;;;;11.30;45.20;100425.69;117221;1186;22606;-57
2022/04/16 00:14:03;;;;;;;8.00;6.00;;;;;;;11.37;45.14;100425.42;117249;1183;21853;-48
2022/04/16 00:16:32;;;;;;;10.70;6.00;;;;;;;11.42;45.13;100421.65;117242;1184;23560;-57
2022/04/16 00:19:00;;;;;;;9.30;6.20;;;;;;;11.45;45.20;100420.91;117247;1186;21855;-48
2022/04/16 00:21:28;;;;;;;10.60;6.30;;;;;;;11.49;45.19;100424.90;117246;1185;23451;-57
2022/04/16 00:23:57;;;;;;;12.50;6.50;;;;;;;11.50;45.19;100422.77;117189;1185;23553;-48
2022/04/16 00:26:25;;;;;;;9.90;5.80;;;;;;;11.53;45.23;100420.25;117737;1186;23554;-48
2022/04/16 00:28:55;;;;;;;9.20;5.80;;;;;;;11.56;45.26;100418.45;117288;1186;23557;-47
2022/04/16 00:31:23;;;;;;;10.50;6.00;;;;;;;11.57;45.40;100418.09;117299;1185;24172;-48
2022/04/16 00:33:52;;;;;;;11.20;6.80;;;;;;;11.59;45.27;100419.46;118612;1185;22974;-58
2022/04/16 00:36:21;;;;;;;7.80;5.30;;;;;;;11.51;45.28;100421.33;117260;1186;23582;-57
2022/04/16 00:38:49;;;;;;;8.20;5.20;;;;;;;11.49;45.45;100419.26;117277;1185;21927;-58
2022/04/16 00:41:17;;;;;;;8.20;5.80;;;;;;;11.52;45.48;100414.65;117331;1186;24162;-48
2022/04/16 00:43:47;;;;;;;9.30;5.70;;;;;;;11.56;45.41;100412.31;117265;1187;23537;-57
2022/04/16 00:46:15;;;;;;;8.10;5.60;;;;;;;11.57;45.34;100407.20;117205;1186;23646;-48
2022/04/16 00:48:44;;;;;;;7.80;5.20;;;;;;;11.57;45.37;100403.33;117335;1186;23556;-57
2022/04/16 00:51:32;;;;;;;9.30;5.70;;;;;;;11.55;45.34;100398.08;117371;1186;24165;-48
2022/04/16 00:54:00;;;;;;;10.10;5.70;;;;;;;11.50;45.54;100393.59;117197;1186;23453;-58
2022/04/16 00:56:29;;;;;;;10.70;6.10;;;;;;;11.51;45.80;100390.59;117209;1186;22819;-57
2022/04/16 00:58:58;;;;;;;10.60;5.70;;;;;;;11.53;45.72;100393.20;117332;1186;23558;-59
2022/04/16 01:01:26;;;;;;;10.20;6.10;;;;;;;11.54;45.75;100389.84;117331;1186;23509;-48
2022/04/16 01:03:57;;;;;;;12.80;6.20;;;;;;;11.54;45.65;100391.23;117216;1186;23554;-57
2022/04/16 01:06:37;;;;;;;9.50;5.10;;;;;;;11.54;45.75;100384.56;117163;1186;23551;-56
2022/04/16 01:09:06;;;;;;;7.90;5.50;;;;;;;11.54;45.69;100384.03;117229;1186;21851;-57
2022/04/16 01:11:34;;;;;;;12.80;6.10;;;;;;;11.55;45.76;100375.42;117228;1186;23639;-47
2022/04/16 01:14:03;;;;;;;10.20;5.50;;;;;;;11.54;45.83;100375.42;117141;1186;22827;-57
2022/04/16 01:16:39;;;;;;;9.00;5.50;;;;;;;11.48;45.62;100373.77;117248;1186;23567;-47
2022/04/16 01:19:10;;;;;;;10.10;5.80;;;;;;;11.38;45.48;100368.84;117221;1185;23441;-48
2022/04/16 01:21:58;;;;;;;8.70;6.10;;;;;;;11.25;45.41;100362.72;117137;1186;22993;-48
2022/04/16 01:24:26;;;;;;;9.10;5.80;;;;;;;11.12;45.29;100362.01;117202;1186;23659;-57
2022/04/16 01:26:58;;;;;;;8.90;5.50;;;;;;;11.01;45.52;100356.73;117258;1186;23555;-57
2022/04/16 01:29:27;;;;;;;8.50;5.60;;;;;;;10.92;45.52;100359.48;117276;1184;21893;-48
2022/04/16 01:31:57;;;;;;;11.10;5.80;;;;;;;10.84;45.52;100359.08;117099;1186;23555;-48
2022/04/16 01:34:25;;;;;;;9.00;5.50;;;;;;;10.77;45.62;100353.91;117117;1186;23628;-57
2022/04/16 01:37:02;;;;;;;7.90;5.60;;;;;;;10.73;45.55;100350.80;117092;1186;24025;-47
2022/04/16 01:39:31;;;;;;;9.20;5.20;;;;;;;10.69;45.58;100352.09;117256;1186;23556;-47
2022/04/16 01:41:59;;;;;;;9.20;5.30;;;;;;;10.64;45.52;100353.73;117105;1187;23453;-57
2022/04/16 01:44:29;;;;;;;10.20;5.70;;;;;;;10.59;45.60;100353.98;117242;1185;21861;-48
2022/04/16 01:46:58;;;;;;;10.60;6.20;;;;;;;10.55;45.69;100350.34;117258;1187;23448;-48
2022/04/16 01:49:26;;;;;;;11.60;5.70;;;;;;;10.51;45.82;100352.48;117239;1186;23566;-48
2022/04/16 01:51:57;;;;;;;7.70;5.20;;;;;;;10.47;45.66;100351.84;117212;1185;23579;-58
2022/04/16 01:54:27;;;;;;;9.80;5.20;;;;;;;10.43;45.86;100349.26;117277;1185;23496;-48
2022/04/16 01:56:56;;;;;;;8.80;5.70;;;;;;;10.36;45.72;100348.60;117281;1185;21859;-58
2022/04/16 01:59:27;;;;;;;9.50;5.30;;;;;;;10.31;45.74;100343.93;117033;1182;22929;-59
2022/04/16 02:01:56;;;;;;;7.50;5.30;;;;;;;10.22;45.81;100349.27;117173;1186;22929;-58
2022/04/16 02:04:24;;;;;;;9.30;5.60;;;;;;;10.14;45.76;100347.10;117289;1185;21889;-58
2022/04/16 02:07:05;;;;;;;9.70;5.80;;;;;;;10.04;45.72;100345.44;117209;1186;22809;-58
2022/04/16 02:09:33;;;;;;;8.40;5.80;;;;;;;9.96;45.80;100344.11;117125;1182;21913;-58
2022/04/16 02:12:01;;;;;;;9.90;5.60;;;;;;;9.91;45.86;100343.84;117216;1186;21853;-58
2022/04/16 02:14:30;;;;;;;10.20;5.80;;;;;;;9.88;46.04;100335.27;117302;1181;22946;-58
2022/04/16 02:17:08;;;;;;;9.40;6.60;;;;;;;9.87;46.03;100333.02;117146;1185;22807;-48
2022/04/16 02:19:39;;;;;;;9.30;5.40;;;;;;;9.86;46.09;100328.99;117212;1186;23468;-58
2022/04/16 02:22:38;;;;;;;9.10;5.60;;;;;;;9.86;46.20;100333.72;117166;1184;22930;-57
2022/04/16 02:25:08;;;;;;;8.10;5.40;;;;;;;9.88;46.21;100339.66;117288;1186;22929;-57
2022/04/16 02:27:36;;;;;;;;;;;;;;;9.90;46.21;100344.71;117196;1186;23539;-48
2022/04/16 02:30:07;;;;;;;8.30;4.80;;;;;;;9.91;46.24;100343.67;117270;1186;21964;-48
2022/04/16 02:32:39;;;;;;;7.10;5.30;;;;;;;9.90;46.13;100337.02;117258;1180;21988;-58
2022/04/16 02:35:08;;;;;;;9.50;5.80;;;;;;;9.89;46.32;100335.80;117136;1185;22617;-48
2022/04/16 02:37:37;;;;;;;10.80;6.40;;;;;;;9.89;46.30;100332.64;117177;1186;21863;-48
2022/04/16 02:40:05;;;;;;;10.20;5.90;;;;;;;9.88;46.19;100333.88;117254;1185;23553;-48
2022/04/16 02:42:37;;;;;;;11.20;6.00;;;;;;;9.87;46.38;100332.48;118463;1185;21851;-57
2022/04/16 02:47:54;;;;;;;12.40;6.00;;;;;;;9.87;46.66;100330.73;117343;1186;23554;-48
2022/04/16 02:50:24;;;;;;;10.50;6.70;;;;;;;9.89;46.70;100335.80;117275;1187;21966;-47
2022/04/16 02:52:53;;;;;;;11.40;6.20;;;;;;;9.93;46.72;100344.52;117305;1186;22040;-57
2022/04/16 02:55:24;;;;;;;8.10;6.30;;;;;;;9.94;46.94;100341.52;117108;1186;22930;-48
2022/04/16 02:57:52;;;;;;;9.20;6.20;;;;;;;9.93;46.82;100338.02;117234;1187;23637;-47
2022/04/16 03:00:21;;;;;;;9.00;5.70;;;;;;;9.93;46.83;100331.19;117299;1186;24232;-58
2022/04/16 03:02:53;;;;;;;13.70;7.50;;;;;;;9.93;46.83;100334.34;117120;1186;22185;-58
2022/04/16 03:05:22;;;;;;;10.40;5.90;;;;;;;9.95;46.93;100337.83;116989;1186;22639;-47
2022/04/16 03:07:51;;;;;;;10.90;6.50;;;;;;;9.95;46.81;100333.27;117262;1186;23554;-57
2022/04/16 03:10:39;;;;;;;11.90;7.00;;;;;;;9.97;46.77;100327.64;117253;1186;21854;-57
2022/04/16 03:13:07;;;;;;;10.70;5.80;;;;;;;9.99;46.80;100327.10;117174;1186;23576;-47
2022/04/16 03:18:42;;;;;;;13.60;6.00;;;;;;;10.00;46.81;100326.91;117202;1186;21941;-47
2022/04/16 03:21:11;;;;;;;9.20;5.80;;;;;;;9.97;46.89;100318.88;117191;1186;23563;-58
2022/04/16 03:23:39;;;;;;;9.20;5.40;;;;;;;9.93;46.83;100316.11;117163;1186;23556;-57
2022/04/16 03:26:07;;;;;;;8.20;5.90;;;;;;;9.90;47.01;100315.27;117324;1185;23552;-47
2022/04/16 03:28:38;;;;;;;9.60;4.70;;;;;;;9.90;46.99;100308.45;117326;1185;23558;-47
2022/04/16 03:31:10;;;;;;;10.30;5.30;;;;;;;9.90;47.03;100310.72;117182;1186;23560;-57
2022/04/16 03:33:38;;;;;;;10.70;5.90;;;;;;;9.93;47.12;100304.54;117310;1186;23553;-47
2022/04/16 03:36:07;;;;;;;9.90;6.10;;;;;;;9.99;47.10;100303.62;117353;1186;24244;-47
2022/04/16 03:38:36;;;;;;;9.40;5.90;;;;;;;10.03;47.32;100299.18;117214;1186;23571;-48
2022/04/16 03:41:05;;;;;;;9.20;5.30;;;;;;;10.09;47.32;100295.25;117085;1187;24152;-48
2022/04/16 03:43:34;;;;;;;10.20;6.20;;;;;;;10.17;47.37;100301.11;117270;1185;23611;-47
2022/04/16 03:46:22;;;;;;;9.00;5.60;;;;;;;10.25;47.37;100298.92;116962;1186;21854;-48
2022/04/16 03:48:51;;;;;;;12.30;5.80;;;;;;;10.32;47.59;100303.76;117133;1186;22729;-54
2022/04/16 03:51:20;;;;;;;6.70;5.20;;;;;;;10.39;47.57;100302.81;117032;1187;23582;-51
2022/04/16 03:53:49;;;;;;;16.50;7.20;;;;;;;10.48;47.74;100296.56;117367;1185;22807;-50
2022/04/16 04:01:52;;;;;;;9.90;5.40;;;;;;;10.81;47.77;100294.88;117142;1185;22817;-59
2022/04/16 04:04:21;;;;;;;10.10;6.10;;;;;;;10.89;47.71;100299.14;116977;1184;23544;-56
2022/04/16 04:07:10;;;;;;;12.70;5.40;;;;;;;10.97;47.83;100304.48;117120;1185;21896;-57
2022/04/16 04:09:39;;;;;;;9.50;5.50;;;;;;;11.03;47.78;100308.44;117215;1186;22009;-49
2022/04/16 04:12:21;;;;;;;10.70;5.60;;;;;;;11.08;48.04;100316.25;117108;1186;24013;-58
2022/04/16 04:14:50;;;;;;;11.60;5.30;;;;;;;11.13;47.95;100317.75;117234;1186;23557;-58
2022/04/16 04:17:38;;;;;;;14.50;5.40;;;;;;;11.19;47.83;100315.03;117176;1182;21856;-48
2022/04/16 04:20:08;;;;;;;15.20;6.00;;;;;;;11.24;48.02;100316.54;117290;1186;23541;-48
2022/04/16 04:22:56;;;;;;;9.50;5.10;;;;;;;11.30;47.95;100313.27;117260;1185;23459;-49
2022/04/16 04:25:25;;;;;;;9.10;5.80;;;;;;;11.37;48.08;100313.88;117188;1184;22996;-48
2022/04/16 04:27:55;;;;;;;13.40;5.80;;;;;;;11.43;48.19;100317.98;117241;1185;23555;-59
2022/04/16 04:30:43;;;;;;;12.10;5.60;;;;;;;11.51;48.14;100323.30;117269;1185;21855;-57
2022/04/16 04:33:11;;;;;;;14.00;6.20;;;;;;;11.56;48.10;100326.19;117230;1186;21840;-48
2022/04/16 04:35:39;;;;;;;13.10;5.70;;;;;;;11.62;48.27;100327.49;117200;1186;21951;-58
2022/04/16 04:38:08;;;;;;;12.00;6.10;;;;;;;11.70;48.22;100326.13;117244;1186;23575;-58
2022/04/16 04:40:39;;;;;;;11.80;6.10;;;;;;;11.88;47.90;100332.84;117261;1185;23679;-49
2022/04/16 04:43:07;;;;;;;12.40;5.80;;;;;;;11.94;47.97;100337.48;117087;1185;23725;-59
2022/04/16 04:45:35;;;;;;;12.30;5.90;;;;;;;12.03;47.83;100338.05;117251;1186;22880;-50
2022/04/16 04:48:05;;;;;;;10.60;5.70;;;;;;;12.01;48.10;100347.05;117227;1182;21899;-50
2022/04/16 04:50:33;;;;;;;14.90;5.40;;;;;;;12.08;48.06;100340.59;117352;1184;21856;-59
2022/04/16 04:53:04;;;;;;;8.40;5.40;;;;;;;12.14;47.99;100347.67;117312;1185;23463;-58
2022/04/16 04:55:32;;;;;;;11.80;5.30;;;;;;;12.19;48.15;100350.05;117218;1190;21958;-58
2022/04/16 04:58:00;;;;;;;6.50;4.20;;;;;;;12.26;48.24;100350.45;117236;1186;23618;-58
2022/04/16 05:00:47;;;;;;;9.50;4.70;;;;;;;12.33;48.53;100346.10;117152;1185;23552;-59
2022/04/16 05:03:15;;;;;;;7.90;4.30;;;;;;;12.39;48.37;100345.61;117051;1186;23579;-49
2022/04/16 05:05:43;;;;;;;17.10;5.00;;;;;;;12.45;48.28;100344.95;117212;1186;23576;-49
2022/04/16 05:08:13;;;;;;;6.50;3.90;;;;;;;12.54;48.19;100353.23;117305;1186;23580;-49
2022/04/16 05:10:43;;;;;;;12.00;5.40;;;;;;;12.60;48.26;100346.74;117124;1186;23554;-47
2022/04/16 05:13:11;;;;;;;11.80;4.40;;;;;;;12.67;48.77;100349.63;117276;1186;23553;-57
2022/04/16 05:15:39;;;;;;;9.40;4.20;;;;;;;12.71;48.66;100341.96;117318;1186;23557;-48
2022/04/16 05:18:08;;;;;;;10.00;4.70;;;;;;;12.76;48.68;100341.14;117265;1186;23595;-47
2022/04/16 05:20:52;;;;;;;8.50;4.30;;;;;;;12.84;49.26;100345.20;116965;1186;21856;-59
2022/04/16 05:23:21;;;;;;;9.80;4.40;;;;;;;12.90;49.43;100344.70;117134;1186;22856;-48
2022/04/16 05:25:51;;;;;;;9.50;4.20;;;;;;;12.95;49.19;100343.36;117251;1186;22906;-48
2022/04/16 05:28:19;;;;;;;8.60;4.00;;;;;;;13.04;48.92;100348.44;117220;1186;21863;-48
2022/04/16 05:30:54;;;;;;;9.70;4.50;;;;;;;13.06;49.16;100349.61;117230;1186;23576;-49
2022/04/16 05:36:10;;;;;;;9.50;3.80;;;;;;;13.10;49.02;100361.34;117224;1186;23548;-49
2022/04/16 05:38:38;;;;;;;8.50;3.70;;;;;;;13.15;48.91;100357.35;117111;1186;23561;-48
2022/04/16 05:41:08;;;;;;;6.80;3.70;;;;;;;13.20;49.27;100358.98;118785;1184;21794;-58
2022/04/16 05:43:36;;;;;;;11.40;4.10;;;;;;;13.24;49.11;100355.38;118880;1186;23657;-58
2022/04/16 05:46:05;;;;;;;9.60;4.70;;;;;;;13.29;49.14;100346.98;119340;1184;21775;-58
2022/04/16 05:48:33;;;;;;;13.90;4.00;;;;;;;13.34;49.15;100347.73;119338;1185;21835;-58
2022/04/16 05:51:03;;;;;;;8.70;4.10;;;;;;;13.40;49.33;100346.89;119321;1185;21775;-58
2022/04/16 05:53:31;;;;;;;11.40;4.70;;;;;;;13.46;49.75;100344.82;119337;1186;21779;-58
2022/04/16 05:56:01;;;;;;;7.70;3.60;;;;;;;13.52;49.16;100337.29;119239;1184;21778;-58
2022/04/16 05:58:29;;;;;;;8.20;3.90;;;;;;;13.59;49.96;100332.88;119176;1185;22251;-58
2022/04/16 06:01:00;;;;;;;10.10;4.00;;;;;;;13.65;49.90;100332.75;119363;1185;22242;-58
2022/04/16 06:03:29;;;;;;;8.10;3.60;;;;;;;13.67;49.59;100331.09;119378;1184;21848;-58
2022/04/16 06:05:59;;;;;;;9.30;3.40;;;;;;;13.70;49.48;100335.08;118057;1186;21905;-57
2022/04/16 06:08:27;;;;;;;9.60;2.90;;;;;;;13.71;49.47;100333.96;117349;1186;22926;-57
2022/04/16 06:11:04;;;;;;;7.10;3.10;;;;;;;13.76;49.06;100329.80;117232;1185;22931;-48
2022/04/16 06:13:33;;;;;;;10.60;4.20;;;;;;;13.83;49.49;100325.58;117266;1186;22620;-46
2022/04/16 06:16:02;;;;;;;9.30;3.70;;;;;;;13.90;49.76;100326.27;117296;1186;22643;-57
2022/04/16 06:18:31;;;;;;;12.00;4.10;;;;;;;13.95;49.56;100323.81;117297;1186;22649;-50
2022/04/16 06:21:01;;;;;;;8.60;3.20;;;;;;;14.02;49.56;100326.30;117166;1186;22624;-49
2022/04/16 06:23:31;;;;;;;8.70;4.50;;;;;;;14.06;49.52;100328.28;117148;1185;22883;-49
2022/04/16 06:26:00;;;;;;;;;;;;;;;14.07;49.53;100329.33;117151;1185;23433;-48
2022/04/16 06:28:29;;;;;;;7.40;3.20;;;;;;;14.11;49.38;100332.41;117643;1185;23579;-57
2022/04/16 06:30:58;;;;;;;9.40;3.40;;;;;;;14.17;49.37;100331.88;117663;1186;21895;-57
2022/04/16 06:33:27;;;;;;;9.60;3.50;;;;;;;14.24;49.56;100330.26;117114;1186;24309;-48
2022/04/16 06:35:56;;;;;;;8.80;3.70;;;;;;;14.38;49.51;100330.91;117083;1186;23566;-48
2022/04/16 06:38:24;;;;;;;9.80;3.60;;;;;;;14.53;49.83;100339.16;117106;1186;23580;-57
2022/04/16 06:40:52;;;;;;;9.80;3.50;;;;;;;14.70;49.69;100343.10;117235;1186;23582;-57
2022/04/16 06:43:20;;;;;;;7.80;3.40;;;;;;;14.88;49.60;100337.23;117106;1187;23582;-48
2022/04/16 06:45:49;;;;;;;8.10;3.70;;;;;;;15.08;49.77;100344.60;117117;1185;23581;-57
2022/04/16 06:48:19;;;;;;;10.90;3.80;;;;;;;15.24;49.68;100339.87;117311;1185;22953;-57
2022/04/16 06:50:48;;;;;;;7.50;2.90;;;;;;;15.41;49.42;100340.70;117280;1186;23551;-48
2022/04/16 06:53:18;;;;;;;7.30;3.60;;;;;;;15.56;49.53;100340.20;117230;1190;21851;-58
2022/04/16 06:55:47;;;;;;;9.90;3.20;;;;;;;15.70;49.28;100331.25;117166;1186;23567;-58
2022/04/16 06:58:16;;;;;;;6.40;3.20;;;;;;;15.80;49.28;100325.05;117147;1186;23582;-50
2022/04/16 07:00:44;;;;;;;8.50;3.60;;;;;;;15.90;49.28;100323.70;117014;1186;23472;-49
2022/04/16 07:03:14;;;;;;;11.70;3.30;;;;;;;16.01;49.25;100319.77;117266;1186;22831;-48
2022/04/16 07:05:43;;;;;;;7.60;2.70;;;;;;;16.15;49.28;100322.63;117218;1186;21874;-49
2022/04/16 07:08:25;;;;;;;7.60;3.00;;;;;;;16.30;49.27;100318.89;117187;1186;22807;-49
2022/04/16 07:10:55;;;;;;;6.60;3.10;;;;;;;16.44;49.19;100314.84;117231;1186;21856;-49
2022/04/16 07:13:43;;;;;;;8.60;3.30;;;;;;;16.64;49.10;100314.77;117267;1186;21854;-56
2022/04/16 07:16:11;;;;;;;11.20;3.70;;;;;;;16.82;49.04;100310.73;117212;1186;23579;-49
2022/04/16 07:18:43;;;;;;;8.60;3.50;;;;;;;16.98;49.11;100315.78;117032;1186;22029;-58
2022/04/16 07:21:11;;;;;;;6.60;2.90;;;;;;;17.15;49.03;100318.86;117340;1186;23464;-49
2022/04/16 07:23:59;;;;;;;6.00;2.70;;;;;;;17.28;48.79;100316.38;117242;1186;21887;-58
2022/04/16 07:26:28;;;;;;;5.00;2.80;;;;;;;17.37;48.71;100318.48;117235;1186;22834;-58
2022/04/16 07:28:58;;;;;;;6.80;2.90;;;;;;;17.45;48.61;100320.81;117059;1186;23544;-58
2022/04/16 07:31:26;;;;;;;7.00;3.20;;;;;;;17.51;48.42;100325.38;117232;1186;23570;-49
2022/04/16 07:33:55;;;;;;;9.70;3.30;;;;;;;17.52;48.34;100326.35;117256;1186;23653;-49
2022/04/16 07:36:23;;;;;;;9.60;3.00;;;;;;;17.53;48.23;100324.20;117225;1186;23649;-58
2022/04/16 07:38:51;;;;;;;27.00;4.30;;;;;;;17.51;48.18;100323.05;117265;1185;22820;-49
2022/04/16 07:41:20;;;;;;;7.00;3.10;;;;;;;17.53;48.17;100321.19;117345;1186;23665;-58
2022/04/16 07:43:48;;;;;;;8.10;3.10;;;;;;;17.60;48.06;100318.96;117368;1185;23554;-49
2022/04/16 07:46:21;;;;;;;12.70;3.60;;;;;;;17.67;48.10;100316.16;117182;1185;23570;-51
2022/04/16 07:48:52;;;;;;;8.00;3.20;;;;;;;17.73;47.92;100308.81;117152;1185;22750;-50
2022/04/16 07:51:20;;;;;;;6.80;3.10;;;;;;;17.82;48.08;100308.95;117207;1186;21856;-51
2022/04/16 07:53:49;;;;;;;6.90;3.30;;;;;;;17.96;48.18;100306.56;118874;1185;22189;-52
2022/04/16 07:56:17;;;;;;;10.10;3.00;;;;;;;18.16;48.24;100299.48;117218;1185;23595;-52
2022/04/16 07:58:47;;;;;;;15.50;3.60;;;;;;;18.35;48.24;100285.86;118534;1186;23641;-51
2022/04/16 08:01:16;;;;;;;6.30;2.80;;;;;;;18.58;48.20;100287.09;117290;1183;21851;-51
2022/04/16 08:03:45;;;;;;;6.80;3.10;;;;;;;18.78;48.19;100288.46;117216;1186;24165;-51
2022/04/16 08:06:14;;;;;;;7.00;2.40;;;;;;;18.95;48.09;100280.76;117129;1186;22617;-51
2022/04/16 08:08:42;;;;;;;7.10;2.90;;;;;;;19.15;48.04;100280.88;117214;1185;21872;-51
2022/04/16 08:11:18;;;;;;;10.60;3.20;;;;;;;19.33;48.01;100270.02;117164;1186;22892;-51
2022/04/16 08:13:47;;;;;;;6.90;3.20;;;;;;;19.51;47.94;100270.66;117226;1186;21862;-51
2022/04/16 08:16:35;;;;;;;7.40;2.80;;;;;;;19.71;47.89;100274.29;117124;1185;21843;-50
2022/04/16 08:19:04;;;;;;;7.20;2.90;;;;;;;19.85;47.59;100276.77;117367;1185;21845;-51
2022/04/16 08:21:34;;;;;;;6.60;3.60;;;;;;;19.92;47.46;100278.92;117108;1186;23692;-51
2022/04/16 08:24:13;;;;;;;9.00;3.40;;;;;;;19.99;47.29;100283.73;117262;1186;23646;-52
2022/04/16 08:27:01;;;;;;;7.30;3.00;;;;;;;20.01;47.12;100285.55;117132;1185;21852;-51
2022/04/16 08:29:29;;;;;;;8.10;3.20;;;;;;;20.09;47.13;100279.44;119364;1184;22354;-53
2022/04/16 08:31:57;;;;;;;8.20;2.90;;;;;;;20.18;47.09;100273.98;119368;1184;21767;-53
2022/04/16 08:35:06;;;;;;;5.40;2.80;;;;;;;20.23;46.82;100272.98;119403;1185;21778;-53
2022/04/16 08:37:54;;;;;;;7.70;3.20;;;;;;;20.29;46.84;100269.80;119159;1186;21838;-53
2022/04/16 08:40:22;;;;;;;7.40;3.20;;;;;;;20.39;46.80;100265.17;119382;1185;22163;-57
2022/04/16 08:42:50;;;;;;;22.40;4.70;;;;;;;20.44;46.55;100260.64;119340;1185;22118;-60
2022/04/16 08:45:18;;;;;;;7.50;2.70;;;;;;;20.47;46.60;100261.19;119400;1185;22428;-59
2022/04/16 08:47:49;;;;;;;6.50;3.00;;;;;;;20.54;46.64;100260.63;119319;1185;21680;-53
2022/04/16 08:50:37;;;;;;;8.10;3.60;;;;;;;20.61;46.58;100259.34;119136;1185;22129;-57
2022/04/16 08:53:06;;;;;;;6.70;3.10;;;;;;;20.70;46.53;100254.59;119255;1185;21782;-52
2022/04/16 08:55:37;;;;;;;10.10;4.20;;;;;;;20.79;46.52;100255.67;117627;1186;23595;-52
2022/04/16 08:58:06;;;;;;;7.60;3.30;;;;;;;20.87;46.37;100252.91;119370;1185;22294;-58
2022/04/16 09:00:34;;;;;;;11.90;4.20;;;;;;;20.97;46.30;100248.44;119325;1184;21795;-58
2022/04/16 09:03:04;;;;;;;6.30;2.90;;;;;;;21.03;46.21;100249.83;119372;1186;21833;-60
2022/04/16 09:05:32;;;;;;;11.50;3.60;;;;;;;21.07;46.14;100242.44;119286;1185;22260;-58
2022/04/16 09:08:00;;;;;;;10.80;3.40;;;;;;;21.17;46.08;100244.05;119329;1180;21763;-58
2022/04/16 09:10:32;;;;;;;7.70;3.20;;;;;;;21.23;45.61;100240.98;119182;1186;22309;-52
2022/04/16 09:13:02;;;;;;;9.50;3.20;;;;;;;21.22;45.86;100234.88;119363;1182;21834;-58
2022/04/16 09:15:31;;;;;;;17.10;4.00;;;;;;;21.33;46.08;100237.05;119342;1185;22189;-58
2022/04/16 09:18:07;;;;;;;8.40;2.90;;;;;;;21.44;45.99;100239.41;119304;1185;21748;-52
2022/04/16 09:20:39;;;;;;;7.40;2.90;;;;;;;21.55;45.83;100233.40;119247;1185;21809;-59
2022/04/16 09:23:15;;;;;;;207.90;16.70;;;;;;;21.60;45.94;100228.52;119365;1185;22314;-58
2022/04/16 09:25:43;;;;;;;12.30;3.20;;;;;;;21.64;45.68;100233.27;119333;1185;22287;-58
2022/04/16 09:28:16;;;;;;;9.80;3.90;;;;;;;21.63;45.72;100231.37;118925;1185;22075;-52
2022/04/16 09:30:55;;;;;;;7.90;3.00;;;;;;;21.59;45.34;100226.27;119350;1184;22292;-51
2022/04/16 09:33:23;;;;;;;8.90;3.40;;;;;;;21.61;45.61;100230.25;119370;1185;21777;-58
2022/04/16 09:35:55;;;;;;;11.70;3.70;;;;;;;21.70;45.69;100231.15;119309;1185;21798;-58
2022/04/16 09:38:30;;;;;;;8.00;2.50;;;;;;;21.85;45.85;100223.08;119292;1185;21765;-58
2022/04/16 09:41:04;;;;;;;10.40;4.00;;;;;;;22.07;45.95;100223.66;119287;1186;21809;-58
2022/04/16 09:43:37;;;;;;;6.40;3.50;;;;;;;22.34;45.78;100220.02;118675;1185;21857;-50
2022/04/16 09:46:09;;;;;;;6.20;2.80;;;;;;;22.50;45.64;100219.73;117383;1185;21849;-50
2022/04/16 09:48:38;;;;;;;10.00;3.90;;;;;;;22.62;45.43;100224.69;117173;1186;23650;-50
2022/04/16 09:51:06;;;;;;;9.50;3.40;;;;;;;22.73;45.57;100227.54;118876;1183;21880;-51
2022/04/16 09:53:36;;;;;;;8.50;3.10;;;;;;;22.75;45.27;100224.77;117371;1185;23601;-58
2022/04/16 09:56:06;;;;;;;9.90;3.30;;;;;;;22.76;45.13;100223.40;117262;1185;23465;-59
2022/04/16 09:58:36;;;;;;;;;;;;;;;22.79;45.16;100226.11;117295;1185;22706;-59
2022/04/16 10:01:04;;;;;;;10.00;4.00;;;;;;;22.86;44.98;100218.98;117225;1186;21870;-59
2022/04/16 10:03:32;;;;;;;7.30;3.20;;;;;;;22.99;45.13;100213.28;117170;1186;21868;-51
2022/04/16 10:06:01;;;;;;;8.20;3.30;;;;;;;23.16;45.43;100210.20;117867;1187;22929;-59
2022/04/16 10:08:31;;;;;;;9.20;3.50;;;;;;;23.37;45.39;100217.42;117202;1185;22617;-51
2022/04/16 10:11:03;;;;;;;8.40;3.20;;;;;;;23.46;44.98;100213.89;118644;1186;23494;-52
2022/04/16 10:13:37;;;;;;;9.50;3.80;;;;;;;23.42;44.56;100225.84;117162;1187;21863;-59
2022/04/16 10:16:30;;;;;;;9.00;3.80;;;;;;;23.19;44.29;100224.46;117324;1189;21999;-59
2022/04/16 10:18:58;;;;;;;6.90;3.50;;;;;;;23.09;44.53;100231.61;117154;1186;21851;-58
2022/04/16 10:21:32;;;;;;;9.40;3.40;;;;;;;23.00;44.32;100225.55;117324;1186;21996;-56
2022/04/16 10:24:00;;;;;;;9.90;3.90;;;;;;;22.82;43.20;100230.18;117305;1186;23568;-52
2022/04/16 10:26:39;;;;;;;8.00;3.90;;;;;;;22.51;43.57;100231.47;117183;1189;21851;-51
2022/04/16 10:29:18;;;;;;;8.90;4.00;;;;;;;22.34;44.30;100228.58;117240;1186;23579;-52
2022/04/16 10:31:50;;;;;;;10.90;4.20;;;;;;;22.39;44.55;100232.02;117243;1186;21865;-52
2022/04/16 10:34:20;;;;;;;9.10;3.80;;;;;;;22.47;44.60;100229.73;117227;1186;23575;-52
2022/04/16 10:36:48;;;;;;;10.20;4.30;;;;;;;22.63;44.52;100229.94;117291;1186;21854;-51
2022/04/16 10:39:18;;;;;;;11.80;4.50;;;;;;;22.79;44.59;100233.20;117283;1186;22842;-51
2022/04/16 10:41:54;;;;;;;9.90;4.70;;;;;;;22.81;44.32;100230.08;117294;1186;21964;-52
2022/04/16 10:44:23;;;;;;;8.30;3.80;;;;;;;22.77;44.18;100231.06;117316;1186;21896;-52
2022/04/16 10:46:53;;;;;;;10.50;4.50;;;;;;;22.73;44.01;100230.01;117225;1186;23598;-52
2022/04/16 10:49:22;;;;;;;9.30;4.40;;;;;;;22.70;44.17;100225.03;117248;1186;21967;-51
2022/04/16 10:51:52;;;;;;;10.10;4.30;;;;;;;22.73;44.13;100221.80;117274;1186;22745;-52
2022/04/16 10:54:36;;;;;;;9.50;4.90;;;;;;;22.79;43.74;100223.25;117269;1186;22830;-53
2022/04/16 10:57:07;;;;;;;12.00;4.50;;;;;;;22.81;43.98;100214.67;117113;1189;23555;-51
2022/04/16 10:59:43;;;;;;;12.00;4.30;;;;;;;22.91;43.86;100222.99;117150;1187;22819;-52
2022/04/16 11:02:23;;;;;;;8.80;4.60;;;;;;;22.92;43.77;100219.14;117277;1186;22173;-53
2022/04/16 11:05:08;;;;;;;14.30;4.50;;;;;;;22.87;43.88;100214.48;117254;1186;21897;-52
2022/04/16 11:07:56;;;;;;;12.20;4.30;;;;;;;22.93;44.03;100216.93;117232;1185;23594;-52
2022/04/16 11:10:25;;;;;;;8.70;4.30;;;;;;;22.96;43.84;100215.80;117239;1186;23557;-52
2022/04/16 11:13:13;;;;;;;11.40;4.80;;;;;;;23.02;44.08;100217.55;117248;1186;24214;-51
2022/04/16 11:15:43;;;;;;;8.80;4.40;;;;;;;23.15;44.04;100212.44;117021;1187;21879;-51
2022/04/16 11:18:42;;;;;;;9.70;4.40;;;;;;;23.31;44.10;100212.48;117139;1188;21852;-51
2022/04/16 11:21:20;;;;;;;8.80;4.30;;;;;;;23.28;43.85;100212.83;117268;1185;21864;-52
2022/04/16 11:24:09;;;;;;;11.60;4.30;;;;;;;23.23;43.57;100211.55;117301;1186;23529;-51
2022/04/16 11:35:00;;;;;;;11.20;4.20;;;;;;;23.31;43.70;100198.50;117268;1185;22832;-51
2022/04/16 11:37:32;;;;;;;11.80;4.60;;;;;;;23.34;43.72;100194.52;117210;1186;22175;-52
2022/04/16 11:40:15;;;;;;;8.60;4.90;;;;;;;23.53;43.97;100192.16;117233;1185;22622;-51
2022/04/16 11:42:44;;;;;;;10.10;5.00;;;;;;;23.69;43.88;100189.80;117365;1185;23553;-51
2022/04/16 11:45:15;;;;;;;11.30;6.00;;;;;;;23.70;43.66;100189.35;117259;1186;23689;-51
2022/04/16 11:47:44;;;;;;;9.30;4.70;;;;;;;23.58;43.31;100195.55;117292;1185;21859;-58
2022/04/16 11:50:13;;;;;;;11.60;5.70;;;;;;;23.47;43.23;100195.77;117279;1185;21911;-58
2022/04/16 11:52:42;;;;;;;9.90;5.20;;;;;;;23.38;43.14;100194.29;117095;1186;23456;-58
2022/04/16 11:55:15;;;;;;;10.00;5.50;;;;;;;23.35;43.25;100188.75;117120;1187;21996;-57
2022/04/16 11:57:46;;;;;;;13.50;6.30;;;;;;;23.36;43.18;100189.21;117438;1185;22951;-51
2022/04/16 12:00:15;;;;;;;7.40;4.40;;;;;;;23.32;43.18;100188.76;117455;1186;23356;-51